createdAt,value
2023-01-27T00:09:57.725Z,23.48
2023-01-27T00:20:04.050Z,23.46
2023-01-27T00:30:09.848Z,23.46
2023-01-27T00:40:15.519Z,23.42
2023-01-27T00:50:21.112Z,23.41
2023-01-27T01:00:26.361Z,23.39
2023-01-27T01:10:31.900Z,23.39
2023-01-27T01:20:37.120Z,23.38
2023-01-27T01:30:42.310Z,23.37
2023-01-27T01:40:47.335Z,23.37
2023-01-27T01:50:52.404Z,23.36
2023-01-27T02:00:58.130Z,23.34
2023-01-27T02:11:03.282Z,23.34
2023-01-27T02:21:08.765Z,23.32
2023-01-27T02:31:14.334Z,23.31
2023-01-27T02:41:19.974Z,23.31
2023-01-27T02:51:25.052Z,23.31
2023-01-27T03:01:30.331Z,23.31
2023-01-27T03:11:35.508Z,23.30
2023-01-27T03:21:40.824Z,23.30
2023-01-27T03:31:46.470Z,23.29
2023-01-27T03:41:52.093Z,23.28
2023-01-27T03:51:57.261Z,23.28
2023-01-27T04:02:02.749Z,23.28
2023-01-27T04:12:08.282Z,23.28
2023-01-27T04:22:13.470Z,23.28
2023-01-27T04:32:18.748Z,23.26
2023-01-27T04:42:23.832Z,23.27
2023-01-27T04:52:29.120Z,23.26
2023-01-27T05:02:34.520Z,23.26
2023-01-27T05:12:39.645Z,23.25
2023-01-27T05:22:44.925Z,23.25
2023-01-27T05:32:50.625Z,23.24
2023-01-27T05:42:55.904Z,23.23
2023-01-27T05:53:01.064Z,23.23
2023-01-27T06:03:06.505Z,23.23
2023-01-27T06:13:11.883Z,23.23
2023-01-27T06:23:17.045Z,23.22
2023-01-27T06:33:22.299Z,23.23
2023-01-27T06:43:28.085Z,23.21
2023-01-27T06:53:33.084Z,23.22
2023-01-27T07:03:38.867Z,23.22
2023-01-27T07:13:44.146Z,23.21
2023-01-27T07:23:49.786Z,23.22
2023-01-27T07:33:55.364Z,23.22
2023-01-27T07:44:00.779Z,23.21
2023-01-27T07:54:06.364Z,23.21
2023-01-27T08:04:11.875Z,23.21
2023-01-27T08:14:17.374Z,23.22
2023-01-27T08:24:22.696Z,23.20
2023-01-27T08:34:27.841Z,23.21
2023-01-27T08:44:32.774Z,23.20
2023-01-27T08:54:37.943Z,23.21
2023-01-27T09:04:43.348Z,23.22
2023-01-27T09:14:48.467Z,23.21
2023-01-27T09:24:53.428Z,23.21
2023-01-27T09:34:58.902Z,23.24
2023-01-27T09:45:04.335Z,23.33
2023-01-27T09:55:09.752Z,23.38
2023-01-27T10:05:15.146Z,23.44
2023-01-27T10:15:20.676Z,23.50
2023-01-27T10:25:25.993Z,23.56
2023-01-27T10:35:31.729Z,23.60
2023-01-27T10:45:37.786Z,23.63
2023-01-27T10:55:43.136Z,23.69
2023-01-27T11:05:48.694Z,23.70
2023-01-27T11:15:53.944Z,23.72
2023-01-27T11:25:59.780Z,23.75
2023-01-27T11:36:05.162Z,23.77
2023-01-27T11:47:29.857Z,23.79
2023-01-27T11:57:34.486Z,23.83
2023-01-27T12:07:39.670Z,23.83
2023-01-27T12:17:45.123Z,23.85
2023-01-27T12:27:50.623Z,23.86
2023-01-27T12:37:55.836Z,23.87
2023-01-27T12:48:00.844Z,23.88
2023-01-27T12:58:05.989Z,23.89
2023-01-27T13:08:11.382Z,23.91
2023-01-27T13:18:16.951Z,23.93
2023-01-27T13:28:22.417Z,23.94
2023-01-27T13:38:27.568Z,23.97
2023-01-27T13:48:33.078Z,23.96
2023-01-27T13:58:38.372Z,23.95
2023-01-27T14:08:43.661Z,23.94
2023-01-27T14:18:49.175Z,23.90
2023-01-27T14:28:54.684Z,23.88
2023-01-27T14:39:00.257Z,23.85
2023-01-27T14:49:05.807Z,23.86
2023-01-27T14:59:11.522Z,23.85
2023-01-27T15:09:16.980Z,23.82
2023-01-27T15:19:21.914Z,23.82
2023-01-27T15:29:27.075Z,23.93
2023-01-27T15:39:41.678Z,23.94
2023-01-27T15:49:43.013Z,23.96
2023-01-27T15:59:58.490Z,24.01
2023-01-27T16:09:59.108Z,24.00
2023-01-27T16:20:05.115Z,24.08
2023-01-27T16:30:10.834Z,24.16
2023-01-27T16:40:17.138Z,24.20
2023-01-27T16:50:22.479Z,24.23
2023-01-27T17:00:28.118Z,24.24
2023-01-27T17:10:35.134Z,24.23
2023-01-27T17:20:41.033Z,24.29
2023-01-27T17:30:47.187Z,24.32
2023-01-27T17:40:52.771Z,24.34
2023-01-27T17:50:57.969Z,24.34
2023-01-27T18:01:03.021Z,24.37
2023-01-27T18:11:08.526Z,24.36
2023-01-27T18:21:13.873Z,24.37
2023-01-27T18:31:19.863Z,24.40
2023-01-27T18:41:25.580Z,24.40
2023-01-27T18:51:30.905Z,24.41
2023-01-27T19:01:36.282Z,24.41
2023-01-27T19:11:41.642Z,24.43
2023-01-27T19:21:46.684Z,24.45
2023-01-27T19:31:52.223Z,24.45
2023-01-27T19:41:57.658Z,24.45
2023-01-27T19:52:02.715Z,24.42
2023-01-27T20:02:07.498Z,24.42
2023-01-27T20:12:15.063Z,24.43
2023-01-27T20:22:21.276Z,24.46
2023-01-27T20:32:26.746Z,24.47
2023-01-27T20:42:32.033Z,24.48
2023-01-27T20:52:37.396Z,24.49
2023-01-27T21:02:42.881Z,24.49
2023-01-27T21:12:48.094Z,24.51
2023-01-27T21:22:53.354Z,24.53
2023-01-27T21:32:58.524Z,24.55
2023-01-27T21:43:03.620Z,24.55
2023-01-27T21:53:08.774Z,24.53
2023-01-27T22:03:14.077Z,24.53
2023-01-27T22:13:19.684Z,24.51
2023-01-27T22:23:24.986Z,24.53
2023-01-27T22:33:30.457Z,24.55
2023-01-27T22:43:35.658Z,24.55
2023-01-27T22:53:41.157Z,24.53
2023-01-27T23:03:46.201Z,24.53
2023-01-27T23:13:51.841Z,24.52
2023-01-27T23:25:17.152Z,24.52
2023-01-27T23:35:21.889Z,24.52
2023-01-27T23:45:27.135Z,24.52
2023-01-27T23:55:32.105Z,24.51
